sensor_id;sensor_type;location;lat;lon;timestamp;P1;durP1;ratioP1;P2;durP2;ratioP2
20245;SDS011;10281;54.406;18.556;2023-05-07T00:01:20;6.77;;;3.80;;
20245;SDS011;10281;54.406;18.556;2023-05-07T00:03:47;9.03;;;3.83;;
20245;SDS011;10281;54.406;18.556;2023-05-07T00:06:14;7.50;;;3.77;;
20245;SDS011;10281;54.406;18.556;2023-05-07T00:08:41;3.90;;;3.33;;
20245;SDS011;10281;54.406;18.556;2023-05-07T00:11:07;6.83;;;3.70;;
20245;SDS011;10281;54.406;18.556;2023-05-07T00:13:34;8.87;;;4.00;;
20245;SDS011;10281;54.406;18.556;2023-05-07T00:16:02;5.77;;;3.20;;
20245;SDS011;10281;54.406;18.556;2023-05-07T00:18:29;6.77;;;3.63;;
20245;SDS011;10281;54.406;18.556;2023-05-07T00:20:56;5.83;;;3.57;;
20245;SDS011;10281;54.406;18.556;2023-05-07T00:23:22;7.30;;;3.77;;
20245;SDS011;10281;54.406;18.556;2023-05-07T00:25:49;5.87;;;3.97;;
20245;SDS011;10281;54.406;18.556;2023-05-07T00:28:16;9.90;;;3.67;;
20245;SDS011;10281;54.406;18.556;2023-05-07T00:30:42;6.43;;;3.70;;
20245;SDS011;10281;54.406;18.556;2023-05-07T00:33:09;9.57;;;3.53;;
20245;SDS011;10281;54.406;18.556;2023-05-07T00:35:36;7.23;;;3.90;;
20245;SDS011;10281;54.406;18.556;2023-05-07T00:38:03;7.23;;;4.10;;
20245;SDS011;10281;54.406;18.556;2023-05-07T00:40:29;9.83;;;5.40;;
20245;SDS011;10281;54.406;18.556;2023-05-07T00:42:56;11.97;;;5.83;;
20245;SDS011;10281;54.406;18.556;2023-05-07T00:45:26;11.60;;;5.70;;
20245;SDS011;10281;54.406;18.556;2023-05-07T00:47:57;9.80;;;4.80;;
20245;SDS011;10281;54.406;18.556;2023-05-07T00:50:26;8.87;;;4.20;;
20245;SDS011;10281;54.406;18.556;2023-05-07T00:52:54;8.53;;;4.33;;
20245;SDS011;10281;54.406;18.556;2023-05-07T00:55:21;7.07;;;4.63;;
20245;SDS011;10281;54.406;18.556;2023-05-07T00:57:49;9.60;;;4.60;;
20245;SDS011;10281;54.406;18.556;2023-05-07T01:00:16;9.37;;;4.50;;
20245;SDS011;10281;54.406;18.556;2023-05-07T01:02:44;7.47;;;4.27;;
20245;SDS011;10281;54.406;18.556;2023-05-07T01:05:12;6.33;;;4.70;;
20245;SDS011;10281;54.406;18.556;2023-05-07T01:07:41;6.20;;;4.27;;
20245;SDS011;10281;54.406;18.556;2023-05-07T01:10:09;6.77;;;3.87;;
20245;SDS011;10281;54.406;18.556;2023-05-07T01:12:37;5.43;;;3.80;;
20245;SDS011;10281;54.406;18.556;2023-05-07T01:15:05;5.20;;;3.87;;
20245;SDS011;10281;54.406;18.556;2023-05-07T01:17:35;4.53;;;3.67;;
20245;SDS011;10281;54.406;18.556;2023-05-07T01:20:03;6.30;;;3.87;;
20245;SDS011;10281;54.406;18.556;2023-05-07T01:22:31;6.07;;;4.00;;
20245;SDS011;10281;54.406;18.556;2023-05-07T01:25:03;5.90;;;3.80;;
20245;SDS011;10281;54.406;18.556;2023-05-07T01:27:30;4.23;;;3.50;;
20245;SDS011;10281;54.406;18.556;2023-05-07T01:29:59;6.50;;;4.13;;
20245;SDS011;10281;54.406;18.556;2023-05-07T01:32:31;6.30;;;4.13;;
20245;SDS011;10281;54.406;18.556;2023-05-07T01:35:00;6.97;;;3.67;;
20245;SDS011;10281;54.406;18.556;2023-05-07T01:37:28;5.77;;;3.90;;
20245;SDS011;10281;54.406;18.556;2023-05-07T01:39:55;6.20;;;3.93;;
20245;SDS011;10281;54.406;18.556;2023-05-07T01:42:23;8.10;;;3.90;;
20245;SDS011;10281;54.406;18.556;2023-05-07T01:44:50;7.30;;;3.73;;
20245;SDS011;10281;54.406;18.556;2023-05-07T01:47:17;6.17;;;4.07;;
20245;SDS011;10281;54.406;18.556;2023-05-07T01:49:45;8.93;;;5.13;;
20245;SDS011;10281;54.406;18.556;2023-05-07T01:52:12;5.37;;;3.77;;
20245;SDS011;10281;54.406;18.556;2023-05-07T01:54:39;5.77;;;4.20;;
20245;SDS011;10281;54.406;18.556;2023-05-07T01:57:06;6.47;;;4.90;;
20245;SDS011;10281;54.406;18.556;2023-05-07T01:59:33;9.57;;;4.93;;
20245;SDS011;10281;54.406;18.556;2023-05-07T02:01:59;6.40;;;4.63;;
20245;SDS011;10281;54.406;18.556;2023-05-07T02:04:26;7.83;;;4.40;;
20245;SDS011;10281;54.406;18.556;2023-05-07T02:06:52;8.20;;;4.50;;
20245;SDS011;10281;54.406;18.556;2023-05-07T02:09:19;9.20;;;5.80;;
20245;SDS011;10281;54.406;18.556;2023-05-07T02:11:46;7.03;;;5.20;;
20245;SDS011;10281;54.406;18.556;2023-05-07T02:14:12;10.77;;;5.30;;
20245;SDS011;10281;54.406;18.556;2023-05-07T02:16:39;8.90;;;5.50;;
20245;SDS011;10281;54.406;18.556;2023-05-07T02:19:05;6.60;;;4.93;;
20245;SDS011;10281;54.406;18.556;2023-05-07T02:21:32;11.60;;;5.17;;
20245;SDS011;10281;54.406;18.556;2023-05-07T02:23:58;8.77;;;5.00;;
20245;SDS011;10281;54.406;18.556;2023-05-07T02:26:25;5.73;;;4.03;;
20245;SDS011;10281;54.406;18.556;2023-05-07T02:28:52;8.30;;;4.20;;
20245;SDS011;10281;54.406;18.556;2023-05-07T02:31:19;6.47;;;4.80;;
20245;SDS011;10281;54.406;18.556;2023-05-07T02:33:46;6.27;;;4.23;;
20245;SDS011;10281;54.406;18.556;2023-05-07T02:36:12;9.13;;;4.50;;
20245;SDS011;10281;54.406;18.556;2023-05-07T02:38:39;6.33;;;4.37;;
20245;SDS011;10281;54.406;18.556;2023-05-07T02:41:05;7.77;;;4.67;;
20245;SDS011;10281;54.406;18.556;2023-05-07T02:43:32;9.30;;;4.70;;
20245;SDS011;10281;54.406;18.556;2023-05-07T02:46:01;8.83;;;4.37;;
20245;SDS011;10281;54.406;18.556;2023-05-07T02:48:28;8.50;;;5.20;;
20245;SDS011;10281;54.406;18.556;2023-05-07T02:50:55;8.80;;;4.37;;
20245;SDS011;10281;54.406;18.556;2023-05-07T02:53:22;9.33;;;4.90;;
20245;SDS011;10281;54.406;18.556;2023-05-07T02:55:54;6.80;;;4.70;;
20245;SDS011;10281;54.406;18.556;2023-05-07T02:58:21;7.53;;;5.00;;
20245;SDS011;10281;54.406;18.556;2023-05-07T03:00:48;7.13;;;4.77;;
20245;SDS011;10281;54.406;18.556;2023-05-07T03:03:15;6.53;;;4.40;;
20245;SDS011;10281;54.406;18.556;2023-05-07T03:05:42;4.93;;;4.13;;
20245;SDS011;10281;54.406;18.556;2023-05-07T03:08:09;9.80;;;5.27;;
20245;SDS011;10281;54.406;18.556;2023-05-07T03:10:36;6.90;;;4.37;;
20245;SDS011;10281;54.406;18.556;2023-05-07T03:13:03;6.70;;;4.57;;
20245;SDS011;10281;54.406;18.556;2023-05-07T03:15:30;9.27;;;4.73;;
20245;SDS011;10281;54.406;18.556;2023-05-07T03:17:57;7.07;;;4.20;;
20245;SDS011;10281;54.406;18.556;2023-05-07T03:20:23;8.80;;;5.07;;
20245;SDS011;10281;54.406;18.556;2023-05-07T03:22:50;10.33;;;5.10;;
20245;SDS011;10281;54.406;18.556;2023-05-07T03:25:16;5.90;;;4.30;;
20245;SDS011;10281;54.406;18.556;2023-05-07T03:27:43;10.20;;;5.00;;
20245;SDS011;10281;54.406;18.556;2023-05-07T03:30:10;7.67;;;4.93;;
20245;SDS011;10281;54.406;18.556;2023-05-07T03:32:38;10.40;;;5.20;;
20245;SDS011;10281;54.406;18.556;2023-05-07T03:35:05;9.17;;;4.90;;
20245;SDS011;10281;54.406;18.556;2023-05-07T03:37:32;7.87;;;5.20;;
20245;SDS011;10281;54.406;18.556;2023-05-07T03:39:59;7.63;;;4.93;;
20245;SDS011;10281;54.406;18.556;2023-05-07T03:42:26;7.53;;;4.87;;
20245;SDS011;10281;54.406;18.556;2023-05-07T03:44:52;6.77;;;4.60;;
20245;SDS011;10281;54.406;18.556;2023-05-07T03:47:19;9.57;;;5.27;;
20245;SDS011;10281;54.406;18.556;2023-05-07T03:49:45;6.33;;;4.90;;
20245;SDS011;10281;54.406;18.556;2023-05-07T03:52:13;8.83;;;5.03;;
20245;SDS011;10281;54.406;18.556;2023-05-07T03:54:40;8.73;;;5.13;;
20245;SDS011;10281;54.406;18.556;2023-05-07T03:57:07;9.33;;;5.03;;
20245;SDS011;10281;54.406;18.556;2023-05-07T03:59:33;7.87;;;5.17;;
20245;SDS011;10281;54.406;18.556;2023-05-07T04:02:00;7.20;;;5.20;;
20245;SDS011;10281;54.406;18.556;2023-05-07T04:04:26;11.93;;;5.57;;
20245;SDS011;10281;54.406;18.556;2023-05-07T04:06:53;8.13;;;5.73;;
20245;SDS011;10281;54.406;18.556;2023-05-07T04:09:19;10.23;;;5.30;;
20245;SDS011;10281;54.406;18.556;2023-05-07T04:11:46;6.90;;;5.13;;
20245;SDS011;10281;54.406;18.556;2023-05-07T04:14:13;8.10;;;5.60;;
20245;SDS011;10281;54.406;18.556;2023-05-07T04:16:39;9.07;;;5.57;;
20245;SDS011;10281;54.406;18.556;2023-05-07T04:19:06;7.97;;;5.50;;
20245;SDS011;10281;54.406;18.556;2023-05-07T04:21:32;7.07;;;4.93;;
20245;SDS011;10281;54.406;18.556;2023-05-07T04:23:59;10.00;;;5.17;;
20245;SDS011;10281;54.406;18.556;2023-05-07T04:26:26;9.87;;;5.30;;
20245;SDS011;10281;54.406;18.556;2023-05-07T04:28:53;6.13;;;5.13;;
20245;SDS011;10281;54.406;18.556;2023-05-07T04:31:20;7.80;;;4.87;;
20245;SDS011;10281;54.406;18.556;2023-05-07T04:33:47;7.40;;;4.93;;
20245;SDS011;10281;54.406;18.556;2023-05-07T04:36:13;9.93;;;5.70;;
20245;SDS011;10281;54.406;18.556;2023-05-07T04:38:40;8.53;;;5.50;;
20245;SDS011;10281;54.406;18.556;2023-05-07T04:41:08;7.73;;;5.23;;
20245;SDS011;10281;54.406;18.556;2023-05-07T04:43:35;9.73;;;5.33;;
20245;SDS011;10281;54.406;18.556;2023-05-07T04:46:02;8.10;;;4.97;;
20245;SDS011;10281;54.406;18.556;2023-05-07T04:48:28;6.30;;;4.60;;
20245;SDS011;10281;54.406;18.556;2023-05-07T04:50:55;12.23;;;5.43;;
20245;SDS011;10281;54.406;18.556;2023-05-07T04:53:22;10.30;;;5.27;;
20245;SDS011;10281;54.406;18.556;2023-05-07T04:55:49;8.83;;;5.37;;
20245;SDS011;10281;54.406;18.556;2023-05-07T04:58:17;8.07;;;5.40;;
20245;SDS011;10281;54.406;18.556;2023-05-07T05:00:44;8.77;;;5.03;;
20245;SDS011;10281;54.406;18.556;2023-05-07T05:03:10;7.93;;;5.40;;
20245;SDS011;10281;54.406;18.556;2023-05-07T05:05:37;8.23;;;5.20;;
20245;SDS011;10281;54.406;18.556;2023-05-07T05:08:04;9.37;;;5.47;;
20245;SDS011;10281;54.406;18.556;2023-05-07T05:10:30;5.87;;;4.60;;
20245;SDS011;10281;54.406;18.556;2023-05-07T05:12:57;10.10;;;5.13;;
20245;SDS011;10281;54.406;18.556;2023-05-07T05:15:23;9.20;;;4.87;;
20245;SDS011;10281;54.406;18.556;2023-05-07T05:17:50;5.97;;;4.60;;
20245;SDS011;10281;54.406;18.556;2023-05-07T05:20:17;9.13;;;5.30;;
20245;SDS011;10281;54.406;18.556;2023-05-07T05:22:44;9.20;;;4.87;;
20245;SDS011;10281;54.406;18.556;2023-05-07T05:25:10;7.50;;;5.00;;
20245;SDS011;10281;54.406;18.556;2023-05-07T05:27:37;9.30;;;5.20;;
20245;SDS011;10281;54.406;18.556;2023-05-07T05:30:04;8.53;;;4.80;;
20245;SDS011;10281;54.406;18.556;2023-05-07T05:32:31;10.27;;;4.93;;
20245;SDS011;10281;54.406;18.556;2023-05-07T05:34:58;7.57;;;4.30;;
20245;SDS011;10281;54.406;18.556;2023-05-07T05:37:24;4.93;;;4.00;;
20245;SDS011;10281;54.406;18.556;2023-05-07T05:39:51;7.93;;;4.73;;
20245;SDS011;10281;54.406;18.556;2023-05-07T05:42:20;7.47;;;4.40;;
20245;SDS011;10281;54.406;18.556;2023-05-07T05:44:47;7.43;;;4.77;;
20245;SDS011;10281;54.406;18.556;2023-05-07T05:47:13;5.83;;;4.17;;
20245;SDS011;10281;54.406;18.556;2023-05-07T05:49:40;5.53;;;3.67;;
20245;SDS011;10281;54.406;18.556;2023-05-07T05:52:09;6.23;;;3.90;;
20245;SDS011;10281;54.406;18.556;2023-05-07T05:54:38;8.17;;;4.50;;
20245;SDS011;10281;54.406;18.556;2023-05-07T05:57:04;6.30;;;4.40;;
20245;SDS011;10281;54.406;18.556;2023-05-07T05:59:31;4.87;;;3.63;;
20245;SDS011;10281;54.406;18.556;2023-05-07T06:01:58;5.67;;;3.17;;
20245;SDS011;10281;54.406;18.556;2023-05-07T06:04:25;7.93;;;3.87;;
20245;SDS011;10281;54.406;18.556;2023-05-07T06:06:51;8.77;;;4.17;;
20245;SDS011;10281;54.406;18.556;2023-05-07T06:09:18;5.73;;;3.67;;
20245;SDS011;10281;54.406;18.556;2023-05-07T06:11:45;3.90;;;3.40;;
20245;SDS011;10281;54.406;18.556;2023-05-07T06:14:12;5.27;;;3.70;;
20245;SDS011;10281;54.406;18.556;2023-05-07T06:16:38;6.37;;;4.10;;
20245;SDS011;10281;54.406;18.556;2023-05-07T06:19:05;11.80;;;3.53;;
20245;SDS011;10281;54.406;18.556;2023-05-07T06:21:32;5.93;;;3.00;;
20245;SDS011;10281;54.406;18.556;2023-05-07T06:23:58;7.37;;;3.50;;
20245;SDS011;10281;54.406;18.556;2023-05-07T06:26:25;7.43;;;3.43;;
20245;SDS011;10281;54.406;18.556;2023-05-07T06:28:51;6.10;;;3.70;;
20245;SDS011;10281;54.406;18.556;2023-05-07T06:31:18;5.70;;;3.73;;
20245;SDS011;10281;54.406;18.556;2023-05-07T06:33:46;5.47;;;3.43;;
20245;SDS011;10281;54.406;18.556;2023-05-07T06:36:13;6.63;;;3.50;;
20245;SDS011;10281;54.406;18.556;2023-05-07T06:38:39;7.47;;;4.00;;
20245;SDS011;10281;54.406;18.556;2023-05-07T06:41:06;6.23;;;3.70;;
20245;SDS011;10281;54.406;18.556;2023-05-07T06:43:33;8.03;;;5.10;;
20245;SDS011;10281;54.406;18.556;2023-05-07T06:46:00;8.60;;;3.70;;
20245;SDS011;10281;54.406;18.556;2023-05-07T06:48:26;7.20;;;4.17;;
20245;SDS011;10281;54.406;18.556;2023-05-07T06:50:53;6.53;;;3.53;;
20245;SDS011;10281;54.406;18.556;2023-05-07T06:53:21;6.60;;;3.70;;
20245;SDS011;10281;54.406;18.556;2023-05-07T06:55:47;5.30;;;4.00;;
20245;SDS011;10281;54.406;18.556;2023-05-07T06:58:14;4.87;;;3.60;;
20245;SDS011;10281;54.406;18.556;2023-05-07T07:00:41;4.63;;;3.77;;
20245;SDS011;10281;54.406;18.556;2023-05-07T07:03:07;6.77;;;3.80;;
20245;SDS011;10281;54.406;18.556;2023-05-07T07:05:34;5.30;;;3.57;;
20245;SDS011;10281;54.406;18.556;2023-05-07T07:08:01;5.37;;;3.30;;
20245;SDS011;10281;54.406;18.556;2023-05-07T07:10:27;4.60;;;3.27;;
20245;SDS011;10281;54.406;18.556;2023-05-07T07:12:54;6.10;;;3.43;;
20245;SDS011;10281;54.406;18.556;2023-05-07T07:15:21;5.63;;;3.73;;
20245;SDS011;10281;54.406;18.556;2023-05-07T07:17:48;4.13;;;3.30;;
20245;SDS011;10281;54.406;18.556;2023-05-07T07:20:14;7.27;;;3.90;;
20245;SDS011;10281;54.406;18.556;2023-05-07T07:22:41;4.40;;;3.60;;
20245;SDS011;10281;54.406;18.556;2023-05-07T07:25:08;8.30;;;3.73;;
20245;SDS011;10281;54.406;18.556;2023-05-07T07:27:36;10.13;;;4.13;;
20245;SDS011;10281;54.406;18.556;2023-05-07T07:30:03;4.57;;;3.57;;
20245;SDS011;10281;54.406;18.556;2023-05-07T07:32:31;6.53;;;3.30;;
20245;SDS011;10281;54.406;18.556;2023-05-07T07:34:59;8.27;;;3.97;;
20245;SDS011;10281;54.406;18.556;2023-05-07T07:37:25;5.83;;;3.70;;
20245;SDS011;10281;54.406;18.556;2023-05-07T07:39:52;4.00;;;3.40;;
20245;SDS011;10281;54.406;18.556;2023-05-07T07:42:19;5.20;;;3.33;;
20245;SDS011;10281;54.406;18.556;2023-05-07T07:44:46;4.63;;;3.80;;
20245;SDS011;10281;54.406;18.556;2023-05-07T07:47:12;6.07;;;3.57;;
20245;SDS011;10281;54.406;18.556;2023-05-07T07:49:39;6.50;;;4.17;;
20245;SDS011;10281;54.406;18.556;2023-05-07T07:52:05;6.23;;;3.77;;
20245;SDS011;10281;54.406;18.556;2023-05-07T07:54:32;6.03;;;3.83;;
20245;SDS011;10281;54.406;18.556;2023-05-07T07:56:59;6.67;;;3.50;;
20245;SDS011;10281;54.406;18.556;2023-05-07T07:59:26;7.40;;;4.00;;
20245;SDS011;10281;54.406;18.556;2023-05-07T08:01:53;5.87;;;3.97;;
20245;SDS011;10281;54.406;18.556;2023-05-07T08:04:22;6.27;;;3.77;;
20245;SDS011;10281;54.406;18.556;2023-05-07T08:06:49;5.23;;;3.80;;
20245;SDS011;10281;54.406;18.556;2023-05-07T08:09:15;5.60;;;3.90;;
20245;SDS011;10281;54.406;18.556;2023-05-07T08:11:42;5.33;;;3.77;;
20245;SDS011;10281;54.406;18.556;2023-05-07T08:14:09;4.50;;;3.43;;
20245;SDS011;10281;54.406;18.556;2023-05-07T08:16:35;5.80;;;3.73;;
20245;SDS011;10281;54.406;18.556;2023-05-07T08:19:02;5.93;;;3.80;;
20245;SDS011;10281;54.406;18.556;2023-05-07T08:21:29;7.47;;;3.53;;
20245;SDS011;10281;54.406;18.556;2023-05-07T08:23:56;4.13;;;3.20;;
20245;SDS011;10281;54.406;18.556;2023-05-07T08:26:23;4.33;;;3.70;;
20245;SDS011;10281;54.406;18.556;2023-05-07T08:28:49;6.70;;;3.70;;
20245;SDS011;10281;54.406;18.556;2023-05-07T08:31:16;4.20;;;3.57;;
20245;SDS011;10281;54.406;18.556;2023-05-07T08:33:43;8.73;;;3.70;;
20245;SDS011;10281;54.406;18.556;2023-05-07T08:36:09;5.27;;;3.37;;
20245;SDS011;10281;54.406;18.556;2023-05-07T08:38:36;5.90;;;3.37;;
20245;SDS011;10281;54.406;18.556;2023-05-07T08:41:02;5.27;;;3.73;;
20245;SDS011;10281;54.406;18.556;2023-05-07T08:43:29;6.20;;;3.20;;
20245;SDS011;10281;54.406;18.556;2023-05-07T08:45:59;5.33;;;2.97;;
20245;SDS011;10281;54.406;18.556;2023-05-07T08:48:27;5.57;;;3.37;;
20245;SDS011;10281;54.406;18.556;2023-05-07T08:50:57;6.77;;;3.17;;
20245;SDS011;10281;54.406;18.556;2023-05-07T08:53:24;7.00;;;3.00;;
20245;SDS011;10281;54.406;18.556;2023-05-07T08:55:51;4.70;;;2.87;;
20245;SDS011;10281;54.406;18.556;2023-05-07T08:58:19;5.23;;;3.37;;
20245;SDS011;10281;54.406;18.556;2023-05-07T09:00:46;6.97;;;3.10;;
20245;SDS011;10281;54.406;18.556;2023-05-07T09:03:13;7.63;;;3.10;;
20245;SDS011;10281;54.406;18.556;2023-05-07T09:05:40;5.03;;;3.40;;
20245;SDS011;10281;54.406;18.556;2023-05-07T09:08:07;3.33;;;3.03;;
20245;SDS011;10281;54.406;18.556;2023-05-07T09:10:34;7.63;;;3.30;;
20245;SDS011;10281;54.406;18.556;2023-05-07T09:13:00;4.83;;;3.07;;
20245;SDS011;10281;54.406;18.556;2023-05-07T09:15:29;5.37;;;3.10;;
20245;SDS011;10281;54.406;18.556;2023-05-07T09:17:59;3.87;;;3.07;;
20245;SDS011;10281;54.406;18.556;2023-05-07T09:20:27;4.47;;;3.73;;
20245;SDS011;10281;54.406;18.556;2023-05-07T09:22:56;5.63;;;2.90;;
20245;SDS011;10281;54.406;18.556;2023-05-07T09:25:28;4.33;;;2.87;;
20245;SDS011;10281;54.406;18.556;2023-05-07T09:27:56;6.37;;;3.17;;
20245;SDS011;10281;54.406;18.556;2023-05-07T09:30:27;5.23;;;3.40;;
20245;SDS011;10281;54.406;18.556;2023-05-07T09:32:55;5.50;;;3.40;;
20245;SDS011;10281;54.406;18.556;2023-05-07T09:35:22;4.33;;;3.37;;
20245;SDS011;10281;54.406;18.556;2023-05-07T09:37:52;4.53;;;3.30;;
20245;SDS011;10281;54.406;18.556;2023-05-07T09:40:21;7.20;;;3.27;;
20245;SDS011;10281;54.406;18.556;2023-05-07T09:42:49;6.40;;;3.97;;
20245;SDS011;10281;54.406;18.556;2023-05-07T09:45:21;3.27;;;2.90;;
20245;SDS011;10281;54.406;18.556;2023-05-07T09:47:49;4.10;;;2.90;;
20245;SDS011;10281;54.406;18.556;2023-05-07T09:50:18;4.03;;;2.80;;
20245;SDS011;10281;54.406;18.556;2023-05-07T09:52:47;3.87;;;3.00;;
20245;SDS011;10281;54.406;18.556;2023-05-07T09:55:14;4.10;;;3.20;;
20245;SDS011;10281;54.406;18.556;2023-05-07T09:57:41;32.30;;;11.67;;
20245;SDS011;10281;54.406;18.556;2023-05-07T10:00:10;8.70;;;3.43;;
20245;SDS011;10281;54.406;18.556;2023-05-07T10:02:37;7.60;;;3.77;;
20245;SDS011;10281;54.406;18.556;2023-05-07T10:05:08;4.93;;;2.30;;
20245;SDS011;10281;54.406;18.556;2023-05-07T10:07:35;5.63;;;2.73;;
20245;SDS011;10281;54.406;18.556;2023-05-07T10:10:02;5.27;;;3.10;;
20245;SDS011;10281;54.406;18.556;2023-05-07T10:12:30;7.33;;;3.07;;
20245;SDS011;10281;54.406;18.556;2023-05-07T10:14:59;3.65;;;2.70;;
20245;SDS011;10281;54.406;18.556;2023-05-07T10:17:26;2.90;;;2.70;;
20245;SDS011;10281;54.406;18.556;2023-05-07T10:19:53;5.13;;;2.70;;
20245;SDS011;10281;54.406;18.556;2023-05-07T10:22:20;5.83;;;2.90;;
20245;SDS011;10281;54.406;18.556;2023-05-07T10:24:48;4.97;;;3.00;;
20245;SDS011;10281;54.406;18.556;2023-05-07T10:27:19;4.13;;;2.83;;
20245;SDS011;10281;54.406;18.556;2023-05-07T10:30:29;3.30;;;2.90;;
20245;SDS011;10281;54.406;18.556;2023-05-07T10:32:39;3.40;;;3.03;;
20245;SDS011;10281;54.406;18.556;2023-05-07T10:35:10;4.03;;;2.83;;
20245;SDS011;10281;54.406;18.556;2023-05-07T10:37:38;4.27;;;3.10;;
20245;SDS011;10281;54.406;18.556;2023-05-07T10:40:06;5.03;;;3.45;;
20245;SDS011;10281;54.406;18.556;2023-05-07T10:42:34;4.17;;;3.10;;
20245;SDS011;10281;54.406;18.556;2023-05-07T10:45:17;3.93;;;3.17;;
20245;SDS011;10281;54.406;18.556;2023-05-07T10:50:22;5.80;;;3.67;;
20245;SDS011;10281;54.406;18.556;2023-05-07T10:53:16;7.20;;;4.27;;
20245;SDS011;10281;54.406;18.556;2023-05-07T10:55:24;6.37;;;4.17;;
20245;SDS011;10281;54.406;18.556;2023-05-07T10:57:51;7.13;;;4.10;;
20245;SDS011;10281;54.406;18.556;2023-05-07T11:03:08;5.63;;;3.60;;
20245;SDS011;10281;54.406;18.556;2023-05-07T11:05:35;5.70;;;3.80;;
20245;SDS011;10281;54.406;18.556;2023-05-07T11:08:03;4.97;;;3.43;;
20245;SDS011;10281;54.406;18.556;2023-05-07T11:13:09;6.37;;;3.83;;
20245;SDS011;10281;54.406;18.556;2023-05-07T11:15:36;7.57;;;4.13;;
20245;SDS011;10281;54.406;18.556;2023-05-07T11:18:07;6.50;;;3.80;;
20245;SDS011;10281;54.406;18.556;2023-05-07T11:25:51;8.10;;;4.27;;
20245;SDS011;10281;54.406;18.556;2023-05-07T11:28:21;4.87;;;4.30;;
20245;SDS011;10281;54.406;18.556;2023-05-07T11:30:48;9.87;;;5.20;;
20245;SDS011;10281;54.406;18.556;2023-05-07T11:33:17;4.23;;;3.80;;
20245;SDS011;10281;54.406;18.556;2023-05-07T11:35:44;7.60;;;4.17;;
20245;SDS011;10281;54.406;18.556;2023-05-07T11:38:12;4.70;;;3.20;;
20245;SDS011;10281;54.406;18.556;2023-05-07T11:43:19;5.77;;;3.23;;
20245;SDS011;10281;54.406;18.556;2023-05-07T11:45:46;4.00;;;3.20;;
20245;SDS011;10281;54.406;18.556;2023-05-07T11:48:19;5.03;;;3.47;;
20245;SDS011;10281;54.406;18.556;2023-05-07T11:50:52;5.23;;;3.43;;
20245;SDS011;10281;54.406;18.556;2023-05-07T11:53:20;4.83;;;3.27;;
20245;SDS011;10281;54.406;18.556;2023-05-07T11:55:52;6.00;;;3.40;;
20245;SDS011;10281;54.406;18.556;2023-05-07T11:58:20;5.30;;;3.30;;
20245;SDS011;10281;54.406;18.556;2023-05-07T12:00:49;6.37;;;3.30;;
20245;SDS011;10281;54.406;18.556;2023-05-07T12:03:16;3.63;;;3.00;;
20245;SDS011;10281;54.406;18.556;2023-05-07T12:05:45;6.50;;;3.13;;
20245;SDS011;10281;54.406;18.556;2023-05-07T12:08:14;6.17;;;3.70;;
20245;SDS011;10281;54.406;18.556;2023-05-07T12:10:42;4.17;;;3.30;;
20245;SDS011;10281;54.406;18.556;2023-05-07T12:15:43;11.87;;;3.53;;
20245;SDS011;10281;54.406;18.556;2023-05-07T12:18:10;5.03;;;3.47;;
20245;SDS011;10281;54.406;18.556;2023-05-07T12:20:38;4.50;;;3.40;;
20245;SDS011;10281;54.406;18.556;2023-05-07T12:23:05;4.53;;;3.23;;
20245;SDS011;10281;54.406;18.556;2023-05-07T12:25:35;6.93;;;3.90;;
20245;SDS011;10281;54.406;18.556;2023-05-07T12:28:02;4.77;;;3.77;;
20245;SDS011;10281;54.406;18.556;2023-05-07T12:30:32;5.00;;;3.37;;
20245;SDS011;10281;54.406;18.556;2023-05-07T12:33:00;5.50;;;3.70;;
20245;SDS011;10281;54.406;18.556;2023-05-07T12:35:27;7.23;;;3.90;;
20245;SDS011;10281;54.406;18.556;2023-05-07T12:37:58;5.00;;;3.20;;
20245;SDS011;10281;54.406;18.556;2023-05-07T12:40:37;7.20;;;3.70;;
20245;SDS011;10281;54.406;18.556;2023-05-07T12:43:04;5.37;;;3.50;;
20245;SDS011;10281;54.406;18.556;2023-05-07T12:45:31;4.10;;;3.30;;
20245;SDS011;10281;54.406;18.556;2023-05-07T12:48:03;6.90;;;3.53;;
20245;SDS011;10281;54.406;18.556;2023-05-07T12:50:31;6.90;;;3.53;;
20245;SDS011;10281;54.406;18.556;2023-05-07T12:52:59;6.27;;;3.53;;
20245;SDS011;10281;54.406;18.556;2023-05-07T12:55:26;6.33;;;4.23;;
20245;SDS011;10281;54.406;18.556;2023-05-07T12:57:55;6.27;;;3.60;;
20245;SDS011;10281;54.406;18.556;2023-05-07T13:00:38;6.90;;;3.50;;
20245;SDS011;10281;54.406;18.556;2023-05-07T13:03:05;4.47;;;3.17;;
20245;SDS011;10281;54.406;18.556;2023-05-07T13:05:32;5.97;;;3.70;;
20245;SDS011;10281;54.406;18.556;2023-05-07T13:07:59;4.93;;;4.00;;
20245;SDS011;10281;54.406;18.556;2023-05-07T13:10:26;6.03;;;3.80;;
20245;SDS011;10281;54.406;18.556;2023-05-07T13:12:54;5.60;;;3.90;;
20245;SDS011;10281;54.406;18.556;2023-05-07T13:15:21;10.83;;;4.23;;
20245;SDS011;10281;54.406;18.556;2023-05-07T13:17:47;5.57;;;3.33;;
20245;SDS011;10281;54.406;18.556;2023-05-07T13:20:14;4.20;;;3.77;;
20245;SDS011;10281;54.406;18.556;2023-05-07T13:22:41;5.00;;;2.90;;
20245;SDS011;10281;54.406;18.556;2023-05-07T13:25:08;5.83;;;3.57;;
20245;SDS011;10281;54.406;18.556;2023-05-07T13:27:35;4.67;;;3.33;;
20245;SDS011;10281;54.406;18.556;2023-05-07T13:30:03;6.57;;;3.73;;
20245;SDS011;10281;54.406;18.556;2023-05-07T13:32:31;7.07;;;3.87;;
20245;SDS011;10281;54.406;18.556;2023-05-07T13:34:58;7.20;;;3.80;;
20245;SDS011;10281;54.406;18.556;2023-05-07T13:37:24;5.07;;;3.40;;
20245;SDS011;10281;54.406;18.556;2023-05-07T13:39:51;5.07;;;3.70;;
20245;SDS011;10281;54.406;18.556;2023-05-07T13:42:18;5.13;;;3.37;;
20245;SDS011;10281;54.406;18.556;2023-05-07T13:44:44;6.47;;;3.30;;
20245;SDS011;10281;54.406;18.556;2023-05-07T13:47:11;4.77;;;3.00;;
20245;SDS011;10281;54.406;18.556;2023-05-07T13:49:38;4.10;;;3.10;;
20245;SDS011;10281;54.406;18.556;2023-05-07T13:52:04;6.50;;;3.10;;
20245;SDS011;10281;54.406;18.556;2023-05-07T13:54:31;6.07;;;3.20;;
20245;SDS011;10281;54.406;18.556;2023-05-07T13:56:58;8.77;;;3.40;;
20245;SDS011;10281;54.406;18.556;2023-05-07T13:59:24;4.47;;;3.33;;
20245;SDS011;10281;54.406;18.556;2023-05-07T14:01:51;6.60;;;3.67;;
20245;SDS011;10281;54.406;18.556;2023-05-07T14:04:17;5.97;;;3.20;;
20245;SDS011;10281;54.406;18.556;2023-05-07T14:06:44;7.77;;;3.53;;
20245;SDS011;10281;54.406;18.556;2023-05-07T14:09:11;5.03;;;3.07;;
20245;SDS011;10281;54.406;18.556;2023-05-07T14:11:39;4.60;;;2.73;;
20245;SDS011;10281;54.406;18.556;2023-05-07T14:14:05;4.17;;;2.73;;
20245;SDS011;10281;54.406;18.556;2023-05-07T14:16:32;4.73;;;3.00;;
20245;SDS011;10281;54.406;18.556;2023-05-07T14:18:59;5.00;;;3.10;;
20245;SDS011;10281;54.406;18.556;2023-05-07T14:21:25;3.97;;;3.20;;
20245;SDS011;10281;54.406;18.556;2023-05-07T14:23:52;4.97;;;3.37;;
20245;SDS011;10281;54.406;18.556;2023-05-07T14:26:18;4.60;;;3.10;;
20245;SDS011;10281;54.406;18.556;2023-05-07T14:28:46;4.37;;;2.70;;
20245;SDS011;10281;54.406;18.556;2023-05-07T14:31:12;3.57;;;2.57;;
20245;SDS011;10281;54.406;18.556;2023-05-07T14:33:39;4.20;;;2.70;;
20245;SDS011;10281;54.406;18.556;2023-05-07T14:36:06;5.30;;;3.40;;
20245;SDS011;10281;54.406;18.556;2023-05-07T14:38:32;5.37;;;3.53;;
20245;SDS011;10281;54.406;18.556;2023-05-07T14:40:59;4.73;;;2.83;;
20245;SDS011;10281;54.406;18.556;2023-05-07T14:43:26;8.27;;;4.53;;
20245;SDS011;10281;54.406;18.556;2023-05-07T14:45:52;6.93;;;3.70;;
20245;SDS011;10281;54.406;18.556;2023-05-07T14:48:19;5.33;;;3.10;;
20245;SDS011;10281;54.406;18.556;2023-05-07T14:50:47;5.47;;;3.13;;
20245;SDS011;10281;54.406;18.556;2023-05-07T14:53:14;8.03;;;2.93;;